Airport Name : Split

Other Name : Split Kastela

ICAO : LDSP

IATA : SPU

FAA :

Latitude : 43.538944

Longitude : 16.297964

Country : Croatia

Local Date and Time : 5/25/2018 12:59:00 PM

 

TAF (Terminal Aerodrome Forecast)

TAF LDSP 250525Z 2506/2606 VRB02KT 9999 FEW040 TX28/2511Z TN19/2603Z BECMG 2508/2510 23008KT TEMPO 2510/2514 23012KT PROB30 TEMPO 2511/2514 FEW035CB FEW040TCU BECMG 2517/2519 31005KT

 

METAR (METeorological Aerodrome Report)

LDSP 251030Z 24007KT 200V260 9999 FEW040 27/17 Q1014 TEMPO 23011KT

LDSP 251000Z VRB02KT 9999 FEW040 27/16 Q1014 BECMG TL1030 23008KT

LDSP 250930Z 13003KT 090V200 9999 FEW040 26/16 Q1014 BECMG FM1000 23008KT

LDSP 250900Z 10005KT 060V150 9999 FEW040 25/16 Q1014 NOSIG

LDSP 250830Z 13004KT 080V180 CAVOK 25/17 Q1014 NOSIG

LDSP 250800Z VRB02KT CAVOK 25/16 Q1014 NOSIG

LDSP 250730Z 10003KT 040V150 CAVOK 25/16 Q1014 NOSIG

LDSP 250700Z 12003KT 090V160 CAVOK 24/16 Q1014 NOSIG